sensor_id;sensor_type;location;lat;lon;timestamp;temperature;humidity
13074;DHT22;6603;47.066;15.396;2023-04-24T00:01:57;8.50;99.90
13074;DHT22;6603;47.066;15.396;2023-04-24T00:04:24;8.50;99.90
13074;DHT22;6603;47.066;15.396;2023-04-24T00:06:52;8.50;99.90
13074;DHT22;6603;47.066;15.396;2023-04-24T00:09:23;8.50;99.90
13074;DHT22;6603;47.066;15.396;2023-04-24T00:11:49;8.50;99.90
13074;DHT22;6603;47.066;15.396;2023-04-24T00:14:16;8.50;99.90
13074;DHT22;6603;47.066;15.396;2023-04-24T00:16:42;8.40;99.90
13074;DHT22;6603;47.066;15.396;2023-04-24T00:19:08;8.50;99.90
13074;DHT22;6603;47.066;15.396;2023-04-24T00:21:34;8.40;99.90
13074;DHT22;6603;47.066;15.396;2023-04-24T00:24:00;8.40;99.90
13074;DHT22;6603;47.066;15.396;2023-04-24T00:26:26;8.40;99.90
13074;DHT22;6603;47.066;15.396;2023-04-24T00:28:51;8.30;99.90
13074;DHT22;6603;47.066;15.396;2023-04-24T00:31:18;8.40;99.90
13074;DHT22;6603;47.066;15.396;2023-04-24T00:33:44;8.40;99.90
13074;DHT22;6603;47.066;15.396;2023-04-24T00:36:10;8.40;99.90
13074;DHT22;6603;47.066;15.396;2023-04-24T00:38:36;8.30;99.90
13074;DHT22;6603;47.066;15.396;2023-04-24T00:41:02;8.30;99.90
13074;DHT22;6603;47.066;15.396;2023-04-24T00:43:28;8.40;99.90
13074;DHT22;6603;47.066;15.396;2023-04-24T00:45:54;8.40;99.90
13074;DHT22;6603;47.066;15.396;2023-04-24T00:48:21;8.30;99.90
13074;DHT22;6603;47.066;15.396;2023-04-24T00:50:48;8.30;99.90
13074;DHT22;6603;47.066;15.396;2023-04-24T00:53:14;8.40;99.90
13074;DHT22;6603;47.066;15.396;2023-04-24T00:55:41;8.40;99.90
13074;DHT22;6603;47.066;15.396;2023-04-24T00:58:07;8.40;99.90
13074;DHT22;6603;47.066;15.396;2023-04-24T01:00:33;8.30;99.90
13074;DHT22;6603;47.066;15.396;2023-04-24T01:03:01;8.40;99.90
13074;DHT22;6603;47.066;15.396;2023-04-24T01:05:30;8.30;99.90
13074;DHT22;6603;47.066;15.396;2023-04-24T01:07:57;8.30;99.90
13074;DHT22;6603;47.066;15.396;2023-04-24T01:10:24;8.40;99.90
13074;DHT22;6603;47.066;15.396;2023-04-24T01:12:51;8.40;99.90
13074;DHT22;6603;47.066;15.396;2023-04-24T01:15:17;8.50;99.90
13074;DHT22;6603;47.066;15.396;2023-04-24T01:17:43;8.40;99.90
13074;DHT22;6603;47.066;15.396;2023-04-24T01:20:09;8.40;99.90
13074;DHT22;6603;47.066;15.396;2023-04-24T01:22:36;8.30;99.90
13074;DHT22;6603;47.066;15.396;2023-04-24T01:25:03;8.40;99.90
13074;DHT22;6603;47.066;15.396;2023-04-24T01:27:30;8.30;99.90
13074;DHT22;6603;47.066;15.396;2023-04-24T01:29:56;8.30;99.90
13074;DHT22;6603;47.066;15.396;2023-04-24T01:32:22;8.30;99.90
13074;DHT22;6603;47.066;15.396;2023-04-24T01:34:49;8.30;99.90
13074;DHT22;6603;47.066;15.396;2023-04-24T01:37:16;8.30;99.90
13074;DHT22;6603;47.066;15.396;2023-04-24T01:39:43;8.40;99.90
13074;DHT22;6603;47.066;15.396;2023-04-24T01:42:09;8.30;99.90
13074;DHT22;6603;47.066;15.396;2023-04-24T01:44:35;8.40;99.90
13074;DHT22;6603;47.066;15.396;2023-04-24T01:47:01;8.40;99.90
13074;DHT22;6603;47.066;15.396;2023-04-24T01:49:27;8.40;99.90
13074;DHT22;6603;47.066;15.396;2023-04-24T01:51:53;8.30;99.90
13074;DHT22;6603;47.066;15.396;2023-04-24T01:54:19;8.20;99.90
13074;DHT22;6603;47.066;15.396;2023-04-24T01:56:45;8.20;99.90
13074;DHT22;6603;47.066;15.396;2023-04-24T01:59:12;8.20;99.90
13074;DHT22;6603;47.066;15.396;2023-04-24T02:01:39;8.20;99.90
13074;DHT22;6603;47.066;15.396;2023-04-24T02:04:06;8.20;99.90
13074;DHT22;6603;47.066;15.396;2023-04-24T02:06:32;8.20;99.90
13074;DHT22;6603;47.066;15.396;2023-04-24T02:08:59;8.30;99.90
13074;DHT22;6603;47.066;15.396;2023-04-24T02:11:25;8.10;99.90
13074;DHT22;6603;47.066;15.396;2023-04-24T02:13:52;7.90;99.90
13074;DHT22;6603;47.066;15.396;2023-04-24T02:16:18;8.10;99.90
13074;DHT22;6603;47.066;15.396;2023-04-24T02:18:44;8.10;99.90
13074;DHT22;6603;47.066;15.396;2023-04-24T02:21:10;8.30;99.90
13074;DHT22;6603;47.066;15.396;2023-04-24T02:23:36;8.30;99.90
13074;DHT22;6603;47.066;15.396;2023-04-24T02:26:02;8.30;99.90
13074;DHT22;6603;47.066;15.396;2023-04-24T02:28:28;8.30;99.90
13074;DHT22;6603;47.066;15.396;2023-04-24T02:30:54;8.40;99.90
13074;DHT22;6603;47.066;15.396;2023-04-24T02:33:20;8.40;99.90
13074;DHT22;6603;47.066;15.396;2023-04-24T02:35:45;8.30;99.90
13074;DHT22;6603;47.066;15.396;2023-04-24T02:38:11;8.30;99.90
13074;DHT22;6603;47.066;15.396;2023-04-24T02:40:37;8.30;99.90
13074;DHT22;6603;47.066;15.396;2023-04-24T02:43:03;8.30;99.90
13074;DHT22;6603;47.066;15.396;2023-04-24T02:45:29;8.30;99.90
13074;DHT22;6603;47.066;15.396;2023-04-24T02:47:55;8.30;99.90
13074;DHT22;6603;47.066;15.396;2023-04-24T02:50:21;8.30;99.90
13074;DHT22;6603;47.066;15.396;2023-04-24T02:52:46;8.20;99.90
13074;DHT22;6603;47.066;15.396;2023-04-24T02:55:13;8.20;99.90
13074;DHT22;6603;47.066;15.396;2023-04-24T02:57:39;8.20;99.90
13074;DHT22;6603;47.066;15.396;2023-04-24T03:00:06;8.30;99.90
13074;DHT22;6603;47.066;15.396;2023-04-24T03:02:33;8.30;99.90
13074;DHT22;6603;47.066;15.396;2023-04-24T03:04:59;8.30;99.90
13074;DHT22;6603;47.066;15.396;2023-04-24T03:07:25;8.40;99.90
13074;DHT22;6603;47.066;15.396;2023-04-24T03:09:51;8.30;99.90
13074;DHT22;6603;47.066;15.396;2023-04-24T03:12:17;8.20;99.90
13074;DHT22;6603;47.066;15.396;2023-04-24T03:14:44;8.20;99.90
13074;DHT22;6603;47.066;15.396;2023-04-24T03:17:10;8.30;99.90
13074;DHT22;6603;47.066;15.396;2023-04-24T03:19:36;8.30;99.90
13074;DHT22;6603;47.066;15.396;2023-04-24T03:22:02;8.20;99.90
13074;DHT22;6603;47.066;15.396;2023-04-24T03:24:28;8.30;99.90
13074;DHT22;6603;47.066;15.396;2023-04-24T03:26:54;8.40;99.90
13074;DHT22;6603;47.066;15.396;2023-04-24T03:29:22;8.30;99.90
13074;DHT22;6603;47.066;15.396;2023-04-24T03:31:48;8.30;99.90
13074;DHT22;6603;47.066;15.396;2023-04-24T03:34:14;8.40;99.90
13074;DHT22;6603;47.066;15.396;2023-04-24T03:36:40;8.20;99.90
13074;DHT22;6603;47.066;15.396;2023-04-24T03:39:06;8.20;99.90
13074;DHT22;6603;47.066;15.396;2023-04-24T03:41:32;8.20;99.90
13074;DHT22;6603;47.066;15.396;2023-04-24T03:43:58;8.30;99.90
13074;DHT22;6603;47.066;15.396;2023-04-24T03:46:25;8.30;99.90
13074;DHT22;6603;47.066;15.396;2023-04-24T03:48:51;8.40;99.90
13074;DHT22;6603;47.066;15.396;2023-04-24T03:51:17;8.30;99.90
13074;DHT22;6603;47.066;15.396;2023-04-24T03:53:43;8.30;99.90
13074;DHT22;6603;47.066;15.396;2023-04-24T03:56:08;8.30;99.90
13074;DHT22;6603;47.066;15.396;2023-04-24T03:58:34;8.30;99.90
13074;DHT22;6603;47.066;15.396;2023-04-24T04:01:01;8.40;99.90
13074;DHT22;6603;47.066;15.396;2023-04-24T04:03:27;8.40;99.90
13074;DHT22;6603;47.066;15.396;2023-04-24T04:05:52;8.40;99.90
13074;DHT22;6603;47.066;15.396;2023-04-24T04:08:19;8.50;99.90
13074;DHT22;6603;47.066;15.396;2023-04-24T04:10:48;8.50;99.90
13074;DHT22;6603;47.066;15.396;2023-04-24T04:13:19;8.50;99.90
13074;DHT22;6603;47.066;15.396;2023-04-24T04:15:45;8.60;99.90
13074;DHT22;6603;47.066;15.396;2023-04-24T04:18:11;8.60;99.90
13074;DHT22;6603;47.066;15.396;2023-04-24T04:20:37;8.70;99.90
13074;DHT22;6603;47.066;15.396;2023-04-24T04:23:03;8.70;99.90
13074;DHT22;6603;47.066;15.396;2023-04-24T04:25:29;8.80;99.90
13074;DHT22;6603;47.066;15.396;2023-04-24T04:27:55;8.80;99.90
13074;DHT22;6603;47.066;15.396;2023-04-24T04:30:21;8.90;99.90
13074;DHT22;6603;47.066;15.396;2023-04-24T04:32:47;8.90;99.90
13074;DHT22;6603;47.066;15.396;2023-04-24T04:35:13;8.90;99.90
13074;DHT22;6603;47.066;15.396;2023-04-24T04:37:39;8.90;99.90
13074;DHT22;6603;47.066;15.396;2023-04-24T04:40:06;9.00;99.90
13074;DHT22;6603;47.066;15.396;2023-04-24T04:42:33;8.90;99.90
13074;DHT22;6603;47.066;15.396;2023-04-24T04:45:07;8.90;99.90
13074;DHT22;6603;47.066;15.396;2023-04-24T04:47:37;9.00;99.90
13074;DHT22;6603;47.066;15.396;2023-04-24T04:50:05;9.10;99.90
13074;DHT22;6603;47.066;15.396;2023-04-24T04:52:31;9.00;99.90
13074;DHT22;6603;47.066;15.396;2023-04-24T04:54:57;9.20;99.90
13074;DHT22;6603;47.066;15.396;2023-04-24T04:57:24;9.20;99.90
13074;DHT22;6603;47.066;15.396;2023-04-24T04:59:50;9.30;99.90
13074;DHT22;6603;47.066;15.396;2023-04-24T05:02:16;9.30;99.90
13074;DHT22;6603;47.066;15.396;2023-04-24T05:04:41;9.40;99.90
13074;DHT22;6603;47.066;15.396;2023-04-24T05:07:07;9.40;99.90
13074;DHT22;6603;47.066;15.396;2023-04-24T05:09:33;9.40;99.90
13074;DHT22;6603;47.066;15.396;2023-04-24T05:11:58;9.30;99.90
13074;DHT22;6603;47.066;15.396;2023-04-24T05:14:24;9.40;99.90
13074;DHT22;6603;47.066;15.396;2023-04-24T05:16:50;9.50;99.90
13074;DHT22;6603;47.066;15.396;2023-04-24T05:19:16;9.50;99.90
13074;DHT22;6603;47.066;15.396;2023-04-24T05:21:42;9.50;99.90
13074;DHT22;6603;47.066;15.396;2023-04-24T05:24:08;9.60;99.90
13074;DHT22;6603;47.066;15.396;2023-04-24T05:26:33;9.70;99.90
13074;DHT22;6603;47.066;15.396;2023-04-24T05:29:01;9.70;99.90
13074;DHT22;6603;47.066;15.396;2023-04-24T05:31:28;9.70;99.90
13074;DHT22;6603;47.066;15.396;2023-04-24T05:33:54;9.80;99.90
13074;DHT22;6603;47.066;15.396;2023-04-24T05:36:20;9.80;99.90
13074;DHT22;6603;47.066;15.396;2023-04-24T05:38:45;9.90;99.90
13074;DHT22;6603;47.066;15.396;2023-04-24T05:41:11;9.90;99.90
13074;DHT22;6603;47.066;15.396;2023-04-24T05:43:37;9.90;99.90
13074;DHT22;6603;47.066;15.396;2023-04-24T05:46:02;10.00;99.90
13074;DHT22;6603;47.066;15.396;2023-04-24T05:48:28;10.10;99.90
13074;DHT22;6603;47.066;15.396;2023-04-24T05:50:54;10.20;99.90
13074;DHT22;6603;47.066;15.396;2023-04-24T05:53:20;10.30;99.90
13074;DHT22;6603;47.066;15.396;2023-04-24T05:55:47;10.40;99.90
13074;DHT22;6603;47.066;15.396;2023-04-24T05:58:14;10.60;99.90
13074;DHT22;6603;47.066;15.396;2023-04-24T06:00:40;10.80;99.90
13074;DHT22;6603;47.066;15.396;2023-04-24T06:03:08;11.00;99.90
13074;DHT22;6603;47.066;15.396;2023-04-24T06:05:34;11.20;99.90
13074;DHT22;6603;47.066;15.396;2023-04-24T06:08:00;11.20;99.90
13074;DHT22;6603;47.066;15.396;2023-04-24T06:10:26;11.40;99.90
13074;DHT22;6603;47.066;15.396;2023-04-24T06:12:53;11.50;99.90
13074;DHT22;6603;47.066;15.396;2023-04-24T06:15:21;11.70;99.90
13074;DHT22;6603;47.066;15.396;2023-04-24T06:17:47;11.80;99.90
13074;DHT22;6603;47.066;15.396;2023-04-24T06:20:13;11.80;99.90
13074;DHT22;6603;47.066;15.396;2023-04-24T06:22:39;12.00;99.90
13074;DHT22;6603;47.066;15.396;2023-04-24T06:25:06;12.10;99.90
13074;DHT22;6603;47.066;15.396;2023-04-24T06:27:33;12.20;99.90
13074;DHT22;6603;47.066;15.396;2023-04-24T06:29:59;12.40;99.90
13074;DHT22;6603;47.066;15.396;2023-04-24T06:32:25;12.60;99.90
13074;DHT22;6603;47.066;15.396;2023-04-24T06:34:52;12.70;99.90
13074;DHT22;6603;47.066;15.396;2023-04-24T06:37:19;12.70;99.90
13074;DHT22;6603;47.066;15.396;2023-04-24T06:39:46;12.70;99.90
13074;DHT22;6603;47.066;15.396;2023-04-24T06:42:12;12.70;99.90
13074;DHT22;6603;47.066;15.396;2023-04-24T06:44:38;12.80;99.90
13074;DHT22;6603;47.066;15.396;2023-04-24T06:47:15;12.80;99.90
13074;DHT22;6603;47.066;15.396;2023-04-24T06:49:41;12.70;99.90
13074;DHT22;6603;47.066;15.396;2023-04-24T06:52:08;12.80;99.90
13074;DHT22;6603;47.066;15.396;2023-04-24T06:54:33;12.70;99.90
13074;DHT22;6603;47.066;15.396;2023-04-24T06:57:00;12.70;99.90
13074;DHT22;6603;47.066;15.396;2023-04-24T06:59:28;12.70;99.90
13074;DHT22;6603;47.066;15.396;2023-04-24T07:01:54;12.80;99.90
13074;DHT22;6603;47.066;15.396;2023-04-24T07:04:21;12.70;99.90
13074;DHT22;6603;47.066;15.396;2023-04-24T07:06:47;12.80;99.90
13074;DHT22;6603;47.066;15.396;2023-04-24T07:09:13;12.70;99.90
13074;DHT22;6603;47.066;15.396;2023-04-24T07:11:40;12.60;99.90
13074;DHT22;6603;47.066;15.396;2023-04-24T07:14:07;12.60;99.90
13074;DHT22;6603;47.066;15.396;2023-04-24T07:16:33;12.50;99.90
13074;DHT22;6603;47.066;15.396;2023-04-24T07:18:59;12.20;99.90
13074;DHT22;6603;47.066;15.396;2023-04-24T07:21:26;12.20;99.90
13074;DHT22;6603;47.066;15.396;2023-04-24T07:23:52;12.10;99.90
13074;DHT22;6603;47.066;15.396;2023-04-24T07:26:19;12.00;99.90
13074;DHT22;6603;47.066;15.396;2023-04-24T07:28:45;12.00;99.90
13074;DHT22;6603;47.066;15.396;2023-04-24T07:31:11;11.90;99.90
13074;DHT22;6603;47.066;15.396;2023-04-24T07:33:37;11.90;99.90
13074;DHT22;6603;47.066;15.396;2023-04-24T07:36:04;11.90;99.90
13074;DHT22;6603;47.066;15.396;2023-04-24T07:38:30;11.80;99.90
13074;DHT22;6603;47.066;15.396;2023-04-24T07:40:57;11.80;99.90
13074;DHT22;6603;47.066;15.396;2023-04-24T07:43:23;11.80;99.90
13074;DHT22;6603;47.066;15.396;2023-04-24T07:45:52;11.80;99.90
13074;DHT22;6603;47.066;15.396;2023-04-24T07:48:19;11.80;99.90
13074;DHT22;6603;47.066;15.396;2023-04-24T07:50:47;11.80;99.90
13074;DHT22;6603;47.066;15.396;2023-04-24T07:53:13;11.80;99.90
13074;DHT22;6603;47.066;15.396;2023-04-24T07:55:39;11.80;99.90
13074;DHT22;6603;47.066;15.396;2023-04-24T07:58:05;11.80;99.90
13074;DHT22;6603;47.066;15.396;2023-04-24T08:00:31;11.90;99.90
13074;DHT22;6603;47.066;15.396;2023-04-24T08:02:57;11.90;99.90
13074;DHT22;6603;47.066;15.396;2023-04-24T08:05:23;12.00;99.90
13074;DHT22;6603;47.066;15.396;2023-04-24T08:07:51;12.10;99.90
13074;DHT22;6603;47.066;15.396;2023-04-24T08:10:17;12.10;99.90
13074;DHT22;6603;47.066;15.396;2023-04-24T08:12:42;12.10;99.90
13074;DHT22;6603;47.066;15.396;2023-04-24T08:15:09;12.10;99.90
13074;DHT22;6603;47.066;15.396;2023-04-24T08:17:35;12.00;99.90
13074;DHT22;6603;47.066;15.396;2023-04-24T08:20:02;12.00;99.90
13074;DHT22;6603;47.066;15.396;2023-04-24T08:22:33;12.00;99.90
13074;DHT22;6603;47.066;15.396;2023-04-24T08:25:00;12.10;99.90
13074;DHT22;6603;47.066;15.396;2023-04-24T08:27:27;12.10;99.90
13074;DHT22;6603;47.066;15.396;2023-04-24T08:29:54;12.10;99.90
13074;DHT22;6603;47.066;15.396;2023-04-24T08:32:20;12.00;99.90
13074;DHT22;6603;47.066;15.396;2023-04-24T08:34:45;12.00;99.90
13074;DHT22;6603;47.066;15.396;2023-04-24T08:37:12;12.00;99.90
13074;DHT22;6603;47.066;15.396;2023-04-24T08:39:38;12.00;99.90
13074;DHT22;6603;47.066;15.396;2023-04-24T08:42:05;12.00;99.90
13074;DHT22;6603;47.066;15.396;2023-04-24T08:44:34;12.00;99.90
13074;DHT22;6603;47.066;15.396;2023-04-24T08:47:04;12.00;99.90
13074;DHT22;6603;47.066;15.396;2023-04-24T08:49:31;12.00;99.90
13074;DHT22;6603;47.066;15.396;2023-04-24T08:51:57;12.00;99.90
13074;DHT22;6603;47.066;15.396;2023-04-24T08:54:24;12.00;99.90
13074;DHT22;6603;47.066;15.396;2023-04-24T08:56:50;12.10;99.90
13074;DHT22;6603;47.066;15.396;2023-04-24T08:59:19;12.00;99.90
13074;DHT22;6603;47.066;15.396;2023-04-24T09:01:48;12.10;99.90
13074;DHT22;6603;47.066;15.396;2023-04-24T09:04:15;12.10;99.90
13074;DHT22;6603;47.066;15.396;2023-04-24T09:06:44;12.20;99.90
13074;DHT22;6603;47.066;15.396;2023-04-24T09:09:11;12.10;99.90
13074;DHT22;6603;47.066;15.396;2023-04-24T09:11:37;12.10;99.90
13074;DHT22;6603;47.066;15.396;2023-04-24T09:14:03;12.20;99.90
13074;DHT22;6603;47.066;15.396;2023-04-24T09:16:30;12.10;99.90
13074;DHT22;6603;47.066;15.396;2023-04-24T09:18:58;12.10;99.90
13074;DHT22;6603;47.066;15.396;2023-04-24T09:21:32;11.90;99.90
13074;DHT22;6603;47.066;15.396;2023-04-24T09:24:00;11.60;99.90
13074;DHT22;6603;47.066;15.396;2023-04-24T09:26:31;11.20;99.90
13074;DHT22;6603;47.066;15.396;2023-04-24T09:28:59;11.00;99.90
13074;DHT22;6603;47.066;15.396;2023-04-24T09:31:27;10.80;99.90
13074;DHT22;6603;47.066;15.396;2023-04-24T09:33:57;10.70;99.90
13074;DHT22;6603;47.066;15.396;2023-04-24T09:36:39;10.70;99.90
13074;DHT22;6603;47.066;15.396;2023-04-24T09:39:11;10.70;99.90
13074;DHT22;6603;47.066;15.396;2023-04-24T09:41:54;10.70;99.90
13074;DHT22;6603;47.066;15.396;2023-04-24T09:44:25;10.80;99.90
13074;DHT22;6603;47.066;15.396;2023-04-24T09:46:54;11.00;99.90
13074;DHT22;6603;47.066;15.396;2023-04-24T09:49:25;11.20;99.90
13074;DHT22;6603;47.066;15.396;2023-04-24T09:52:02;11.40;99.90
13074;DHT22;6603;47.066;15.396;2023-04-24T09:54:28;11.50;99.90
13074;DHT22;6603;47.066;15.396;2023-04-24T09:56:58;11.80;99.90
13074;DHT22;6603;47.066;15.396;2023-04-24T09:59:26;12.00;99.90
13074;DHT22;6603;47.066;15.396;2023-04-24T10:01:52;12.20;99.90
13074;DHT22;6603;47.066;15.396;2023-04-24T10:04:19;12.30;99.90
13074;DHT22;6603;47.066;15.396;2023-04-24T10:06:47;12.40;99.90
13074;DHT22;6603;47.066;15.396;2023-04-24T10:09:15;12.20;99.90
13074;DHT22;6603;47.066;15.396;2023-04-24T10:11:43;12.00;99.90
13074;DHT22;6603;47.066;15.396;2023-04-24T10:14:16;12.00;99.90
13074;DHT22;6603;47.066;15.396;2023-04-24T10:16:44;12.20;99.90
13074;DHT22;6603;47.066;15.396;2023-04-24T10:19:14;12.20;99.90
13074;DHT22;6603;47.066;15.396;2023-04-24T10:21:42;12.20;99.90
13074;DHT22;6603;47.066;15.396;2023-04-24T10:24:13;12.20;99.90
13074;DHT22;6603;47.066;15.396;2023-04-24T10:26:40;12.20;99.90
13074;DHT22;6603;47.066;15.396;2023-04-24T10:29:07;12.20;99.90
13074;DHT22;6603;47.066;15.396;2023-04-24T10:31:38;12.20;99.90
13074;DHT22;6603;47.066;15.396;2023-04-24T10:34:06;12.30;99.90
13074;DHT22;6603;47.066;15.396;2023-04-24T10:36:36;12.30;99.90
13074;DHT22;6603;47.066;15.396;2023-04-24T10:39:09;12.40;99.90
13074;DHT22;6603;47.066;15.396;2023-04-24T10:41:40;12.60;99.90
13074;DHT22;6603;47.066;15.396;2023-04-24T10:44:11;13.00;99.90
13074;DHT22;6603;47.066;15.396;2023-04-24T10:46:38;13.20;77.20
13074;DHT22;6603;47.066;15.396;2023-04-24T10:49:07;13.50;8.60
13074;DHT22;6603;47.066;15.396;2023-04-24T10:56:50;14.00;23.20
13074;DHT22;6603;47.066;15.396;2023-04-24T10:59:35;14.20;1.00
13074;DHT22;6603;47.066;15.396;2023-04-24T11:02:01;14.10;1.00
13074;DHT22;6603;47.066;15.396;2023-04-24T11:04:32;14.40;1.00
13074;DHT22;6603;47.066;15.396;2023-04-24T11:06:59;14.50;1.00
13074;DHT22;6603;47.066;15.396;2023-04-24T11:09:31;14.70;1.00
13074;DHT22;6603;47.066;15.396;2023-04-24T11:12:08;15.00;1.00
13074;DHT22;6603;47.066;15.396;2023-04-24T11:14:59;15.10;1.00
13074;DHT22;6603;47.066;15.396;2023-04-24T11:17:34;15.30;94.80
13074;DHT22;6603;47.066;15.396;2023-04-24T11:20:07;15.40;42.50
13074;DHT22;6603;47.066;15.396;2023-04-24T11:22:36;15.60;20.40
13074;DHT22;6603;47.066;15.396;2023-04-24T11:25:03;15.70;99.90
13074;DHT22;6603;47.066;15.396;2023-04-24T11:27:47;15.60;77.50
13074;DHT22;6603;47.066;15.396;2023-04-24T11:30:18;15.70;1.00
13074;DHT22;6603;47.066;15.396;2023-04-24T11:32:47;15.70;1.00
13074;DHT22;6603;47.066;15.396;2023-04-24T11:35:18;15.60;1.00
13074;DHT22;6603;47.066;15.396;2023-04-24T11:37:46;15.60;1.00
13074;DHT22;6603;47.066;15.396;2023-04-24T11:40:15;15.50;99.90
13074;DHT22;6603;47.066;15.396;2023-04-24T11:42:46;15.60;1.00
13074;DHT22;6603;47.066;15.396;2023-04-24T11:47:40;15.40;1.00
13074;DHT22;6603;47.066;15.396;2023-04-24T11:50:09;15.70;1.00
13074;DHT22;6603;47.066;15.396;2023-04-24T11:52:43;15.70;99.90
13074;DHT22;6603;47.066;15.396;2023-04-24T11:57:46;15.60;99.90
13074;DHT22;6603;47.066;15.396;2023-04-24T12:00:17;15.40;99.90
13074;DHT22;6603;47.066;15.396;2023-04-24T12:02:44;15.50;99.90
13074;DHT22;6603;47.066;15.396;2023-04-24T12:05:21;15.40;1.00
13074;DHT22;6603;47.066;15.396;2023-04-24T12:07:47;15.50;26.50
13074;DHT22;6603;47.066;15.396;2023-04-24T12:10:13;15.30;99.90
13074;DHT22;6603;47.066;15.396;2023-04-24T12:12:40;15.40;1.00
13074;DHT22;6603;47.066;15.396;2023-04-24T12:15:09;15.40;99.90
13074;DHT22;6603;47.066;15.396;2023-04-24T12:17:41;15.60;1.00
13074;DHT22;6603;47.066;15.396;2023-04-24T12:20:08;15.80;99.90
13074;DHT22;6603;47.066;15.396;2023-04-24T12:22:51;15.80;1.00
13074;DHT22;6603;47.066;15.396;2023-04-24T12:25:24;16.20;33.90
13074;DHT22;6603;47.066;15.396;2023-04-24T12:28:12;16.20;1.00
13074;DHT22;6603;47.066;15.396;2023-04-24T12:30:48;16.30;1.00
13074;DHT22;6603;47.066;15.396;2023-04-24T12:33:18;16.20;1.00
13074;DHT22;6603;47.066;15.396;2023-04-24T12:35:45;16.30;53.70
13074;DHT22;6603;47.066;15.396;2023-04-24T12:38:13;16.20;1.00
13074;DHT22;6603;47.066;15.396;2023-04-24T12:40:40;16.30;99.90
13074;DHT22;6603;47.066;15.396;2023-04-24T12:43:18;16.20;99.90
13074;DHT22;6603;47.066;15.396;2023-04-24T12:45:45;16.30;1.00
13074;DHT22;6603;47.066;15.396;2023-04-24T12:48:12;16.50;99.90
13074;DHT22;6603;47.066;15.396;2023-04-24T12:50:40;16.40;1.00
13074;DHT22;6603;47.066;15.396;2023-04-24T12:53:07;16.30;1.00
13074;DHT22;6603;47.066;15.396;2023-04-24T12:55:35;16.30;1.00
13074;DHT22;6603;47.066;15.396;2023-04-24T12:58:01;16.10;1.00
13074;DHT22;6603;47.066;15.396;2023-04-24T13:00:28;16.00;99.90
13074;DHT22;6603;47.066;15.396;2023-04-24T13:02:55;16.10;99.90
13074;DHT22;6603;47.066;15.396;2023-04-24T13:05:21;16.10;99.90
13074;DHT22;6603;47.066;15.396;2023-04-24T13:07:47;16.00;1.00
13074;DHT22;6603;47.066;15.396;2023-04-24T13:10:13;16.00;1.00
13074;DHT22;6603;47.066;15.396;2023-04-24T13:12:39;16.00;1.00
13074;DHT22;6603;47.066;15.396;2023-04-24T13:15:07;15.80;1.00
13074;DHT22;6603;47.066;15.396;2023-04-24T13:17:34;15.80;1.00
13074;DHT22;6603;47.066;15.396;2023-04-24T13:20:00;15.70;99.90
13074;DHT22;6603;47.066;15.396;2023-04-24T13:22:26;15.60;1.00
13074;DHT22;6603;47.066;15.396;2023-04-24T13:24:52;15.50;1.00
13074;DHT22;6603;47.066;15.396;2023-04-24T13:27:22;15.70;1.00
13074;DHT22;6603;47.066;15.396;2023-04-24T13:29:48;15.70;1.00
13074;DHT22;6603;47.066;15.396;2023-04-24T13:32:14;15.80;1.00
13074;DHT22;6603;47.066;15.396;2023-04-24T13:34:40;15.60;1.00
13074;DHT22;6603;47.066;15.396;2023-04-24T13:37:06;15.80;1.00
13074;DHT22;6603;47.066;15.396;2023-04-24T13:39:33;15.60;45.10
13074;DHT22;6603;47.066;15.396;2023-04-24T13:41:59;15.60;99.90
13074;DHT22;6603;47.066;15.396;2023-04-24T13:44:26;15.70;1.00
13074;DHT22;6603;47.066;15.396;2023-04-24T13:46:54;15.70;1.00
13074;DHT22;6603;47.066;15.396;2023-04-24T13:49:23;15.80;99.90
13074;DHT22;6603;47.066;15.396;2023-04-24T13:51:51;15.80;1.00
13074;DHT22;6603;47.066;15.396;2023-04-24T13:54:17;16.00;1.00
13074;DHT22;6603;47.066;15.396;2023-04-24T13:56:43;16.10;1.00
13074;DHT22;6603;47.066;15.396;2023-04-24T13:59:11;16.20;1.00
13074;DHT22;6603;47.066;15.396;2023-04-24T14:01:37;16.10;99.90
13074;DHT22;6603;47.066;15.396;2023-04-24T14:04:03;16.10;99.90
13074;DHT22;6603;47.066;15.396;2023-04-24T14:06:29;16.00;99.90
13074;DHT22;6603;47.066;15.396;2023-04-24T14:08:55;15.90;99.90
13074;DHT22;6603;47.066;15.396;2023-04-24T14:11:21;15.80;99.90
13074;DHT22;6603;47.066;15.396;2023-04-24T14:13:47;15.70;99.90
13074;DHT22;6603;47.066;15.396;2023-04-24T14:16:14;15.60;1.00
13074;DHT22;6603;47.066;15.396;2023-04-24T14:18:40;15.50;1.00
13074;DHT22;6603;47.066;15.396;2023-04-24T14:21:06;15.40;1.00
13074;DHT22;6603;47.066;15.396;2023-04-24T14:23:32;15.40;1.00
13074;DHT22;6603;47.066;15.396;2023-04-24T14:25:59;15.40;1.00
13074;DHT22;6603;47.066;15.396;2023-04-24T14:28:25;15.40;1.00
13074;DHT22;6603;47.066;15.396;2023-04-24T14:30:54;15.40;1.00
13074;DHT22;6603;47.066;15.396;2023-04-24T14:33:20;15.30;1.00
13074;DHT22;6603;47.066;15.396;2023-04-24T14:35:46;15.30;1.00
13074;DHT22;6603;47.066;15.396;2023-04-24T14:38:14;15.20;1.00
13074;DHT22;6603;47.066;15.396;2023-04-24T14:43:17;15.20;1.00
13074;DHT22;6603;47.066;15.396;2023-04-24T14:45:45;15.00;1.00
13074;DHT22;6603;47.066;15.396;2023-04-24T14:48:11;15.00;1.00
13074;DHT22;6603;47.066;15.396;2023-04-24T14:50:38;14.90;1.00
13074;DHT22;6603;47.066;15.396;2023-04-24T14:53:04;14.70;1.00
13074;DHT22;6603;47.066;15.396;2023-04-24T14:55:31;14.70;1.00
13074;DHT22;6603;47.066;15.396;2023-04-24T14:57:57;14.60;1.00
13074;DHT22;6603;47.066;15.396;2023-04-24T15:00:23;14.50;1.00
13074;DHT22;6603;47.066;15.396;2023-04-24T15:02:50;14.50;1.00
13074;DHT22;6603;47.066;15.396;2023-04-24T15:05:17;14.50;10.10
13074;DHT22;6603;47.066;15.396;2023-04-24T15:07:43;14.40;1.00
13074;DHT22;6603;47.066;15.396;2023-04-24T15:10:09;14.40;1.00
13074;DHT22;6603;47.066;15.396;2023-04-24T15:12:36;14.30;85.50
13074;DHT22;6603;47.066;15.396;2023-04-24T15:15:02;14.30;90.40
13074;DHT22;6603;47.066;15.396;2023-04-24T15:17:28;14.30;61.40
13074;DHT22;6603;47.066;15.396;2023-04-24T15:19:54;14.20;99.90
13074;DHT22;6603;47.066;15.396;2023-04-24T15:22:20;14.10;96.50
13074;DHT22;6603;47.066;15.396;2023-04-24T15:24:46;14.10;91.10
13074;DHT22;6603;47.066;15.396;2023-04-24T15:27:12;14.00;83.70
13074;DHT22;6603;47.066;15.396;2023-04-24T15:29:38;14.00;91.90
13074;DHT22;6603;47.066;15.396;2023-04-24T15:32:04;13.90;99.90
13074;DHT22;6603;47.066;15.396;2023-04-24T15:34:30;13.90;99.90
13074;DHT22;6603;47.066;15.396;2023-04-24T15:36:58;13.90;99.90
13074;DHT22;6603;47.066;15.396;2023-04-24T15:39:25;14.00;99.90
13074;DHT22;6603;47.066;15.396;2023-04-24T15:41:53;13.80;99.90
13074;DHT22;6603;47.066;15.396;2023-04-24T15:44:20;13.90;99.90
13074;DHT22;6603;47.066;15.396;2023-04-24T15:46:46;13.80;99.90
13074;DHT22;6603;47.066;15.396;2023-04-24T15:49:12;13.60;99.90
13074;DHT22;6603;47.066;15.396;2023-04-24T15:51:39;13.10;99.90
13074;DHT22;6603;47.066;15.396;2023-04-24T15:54:05;11.50;99.90